Flight Track Log - Related Links

Times and Time Zones

All times are in EDT time to prevent confusion due to time zone crossing. See the N777NC flight status page for this flight to view local times or setup timezone preferences in your user account.

Time Position Orientation Groundspeed Altitude Reporting Facility
EDT Latitude Longitude Course Direction KTS MPH feet Rate Location/Type
Tue 02:05:52 PM 33.6519 -84.3756 259° West 389 448 2,700  Level Atlanta Center
Tue 02:06:52 PM 33.6814 -84.3033 64° Northeast 295 339 5,200 2,710 Climbing Atlanta Center
Tue 02:07:25 PM 33.7000 -84.2500 67° East 284 327 6,900 2,759 Climbing Atlanta TRACON
Tue 02:08:00 PM 33.6824 -84.8745 277° West  Level FlightAware Approximate
Tue 02:08:19 PM 33.7833 -84.2500 360° North 302 348 9,200  Level Atlanta TRACON
Tue 02:09:00 PM 33.7044 -84.9695 276° West  Level FlightAware Approximate
Tue 02:09:25 PM 33.8167 -84.3333 296° West 299 344 11,900  Level Atlanta TRACON
Tue 02:10:00 PM 33.7138 -85.0815 276° West  Level FlightAware Approximate
Tue 02:11:00 PM 33.7041 -85.1924 259° West  Level FlightAware Approximate
Tue 02:11:52 PM 33.8242 -84.6014 272° West 333 383 16,500  Level Atlanta Center
Tue 02:12:52 PM 33.8236 -84.7214 270° West 338 389 18,500 1,750 Climbing Atlanta Center
Tue 02:13:52 PM 33.8250 -84.8414 271° West 355 409 20,000 750 Climbing Atlanta Center
Tue 02:14:52 PM 33.8200 -84.9589 267° West 387 445 20,000  Level Atlanta Center
Tue 02:15:52 PM 33.7919 -85.0886 255° West 403 464 20,000  Level Atlanta Center
Tue 02:16:52 PM 33.7531 -85.2206 251° West 415 478 20,000  Level Atlanta Center
Tue 02:17:52 PM 33.7164 -85.3475 251° West 415 478 20,000  Level Atlanta Center
Tue 02:18:52 PM 33.6794 -85.4742 251° West 410 472 20,000 -300 Level Atlanta Center
Tue 02:19:52 PM 33.6483 -85.6183 256° West 405 466 19,400 -1,750 Descending Atlanta Center
Tue 02:20:52 PM 33.6300 -85.7428 260° West 394 453 16,500 -3,100 Descending Atlanta Center
Tue 02:21:52 PM 33.6161 -85.8497 261° West 385 443 13,200 -2,750 Descending Atlanta Center
Tue 02:22:52 PM 33.5892 -85.9664 255° West 375 432 11,000 -1,100 Descending Atlanta Center
Tue 02:23:52 PM 33.5731 -86.0683 259° West 356 410 11,000 50 Level Atlanta Center
Tue 02:24:52 PM 33.5753 -86.1756 271° West 309 356 11,100 -500 Climbing Atlanta Center
Tue 02:25:52 PM 33.5844 -86.2581 278° West 288 331 10,000 -1,450 Descending Atlanta Center
Tue 02:26:52 PM 33.5953 -86.3456 278° West 282 325 8,200 -1,915 Descending Atlanta Center
Tue 02:27:26 PM 33.6022 -86.4106 277° West 278 320 7,000 -2,021 Descending Atlanta Center
Tue 02:28:27 PM 33.6131 -86.5083 278° West 276 318 5,000 -1,967 Descending Atlanta Center

Login

Don't have an account? Register now (free) for customized features, flight alerts, and more!